Time;durP1;ratioP1;P1;durP2;ratioP2;P2;SDS_P1;SDS_P2;PMS_P1;PMS_P2;Temp;Humidity;BMP_temperature;BMP_pressure;BME280_temperature;BME280_humidity;BME280_pressure;Samples;Min_cycle;Max_cycle;Signal;HPM_P1;HPM_P2
2021/07/05 00:01:48;;;;;;;0.83;0.83;;;16.30;99.90;;;;;;5071794;28;20676;-85
2021/07/05 00:04:16;;;;;;;1.33;1.23;;;16.30;99.90;;;;;;5072063;28;20998;-85
2021/07/05 00:06:43;;;;;;;1.80;1.40;;;16.30;99.90;;;;;;5070462;28;20712;-85
2021/07/05 00:09:10;;;;;;;1.73;1.40;;;16.30;99.90;;;;;;5071907;28;20651;-85
2021/07/05 00:11:39;;;;;;;1.00;1.00;;;16.20;99.90;;;;;;5067649;28;20903;-86
2021/07/05 00:14:06;;;;;;;1.23;1.13;;;16.20;99.90;;;;;;5070847;28;20668;-86
2021/07/05 00:16:33;;;;;;;1.10;1.00;;;16.30;99.90;;;;;;5051363;28;20602;-86
2021/07/05 00:19:00;;;;;;;1.47;1.37;;;16.40;99.90;;;;;;5051371;28;20661;-86
2021/07/05 00:21:27;;;;;;;1.40;1.30;;;16.30;99.90;;;;;;5051062;28;20618;-86
2021/07/05 00:23:54;;;;;;;1.30;1.20;;;16.20;99.90;;;;;;5052058;28;20610;-86
2021/07/05 00:26:20;;;;;;;1.23;1.13;;;16.20;99.90;;;;;;5050980;28;21221;-86
2021/07/05 00:28:49;;;;;;;1.40;1.30;;;16.30;99.90;;;;;;5051409;28;20957;-86
2021/07/05 00:31:16;;;;;;;2.20;1.20;;;16.40;99.90;;;;;;5054801;28;21022;-85
2021/07/05 00:33:43;;;;;;;1.37;1.27;;;16.40;99.90;;;;;;5066941;28;20665;-86
2021/07/05 00:36:10;;;;;;;1.93;1.40;;;16.40;99.90;;;;;;5070939;28;20590;-86
2021/07/05 00:38:37;;;;;;;1.60;1.40;;;16.50;99.90;;;;;;5070281;28;20702;-86
2021/07/05 00:41:04;;;;;;;1.60;1.50;;;16.40;99.90;;;;;;5071062;28;20610;-85
2021/07/05 00:43:31;;;;;;;2.00;1.53;;;16.50;99.90;;;;;;5071065;28;20682;-85
2021/07/05 00:45:59;;;;;;;1.20;1.20;;;16.50;99.90;;;;;;5070734;28;21383;-85
2021/07/05 00:48:26;;;;;;;1.13;1.07;;;16.50;99.90;;;;;;5070876;28;20698;-86
2021/07/05 00:50:53;;;;;;;2.33;1.30;;;16.50;99.90;;;;;;5070942;28;20601;-85
2021/07/05 00:53:21;;;;;;;1.30;1.20;;;16.60;99.90;;;;;;5070619;28;20630;-86
2021/07/05 00:55:48;;;;;;;2.20;1.50;;;16.60;99.90;;;;;;5070980;28;20605;-85
2021/07/05 00:58:17;;;;;;;1.30;1.20;;;16.60;99.90;;;;;;5065435;28;20645;-85
2021/07/05 01:00:45;;;;;;;1.30;1.20;;;16.60;99.90;;;;;;5050062;28;20606;-86
2021/07/05 01:03:14;;;;;;;2.60;1.10;;;16.50;99.90;;;;;;5050954;28;21159;-86
2021/07/05 01:05:42;;;;;;;1.10;1.10;;;16.60;99.90;;;;;;5050623;28;20703;-86
2021/07/05 01:08:10;;;;;;;1.20;1.20;;;16.60;99.90;;;;;;5069016;28;20709;-86
2021/07/05 01:10:38;;;;;;;1.47;1.37;;;16.70;99.90;;;;;;5070601;28;21326;-86
2021/07/05 01:13:07;;;;;;;6.50;1.57;;;16.50;99.90;;;;;;5071216;28;20614;-86
2021/07/05 01:15:35;;;;;;;1.30;1.20;;;16.50;99.90;;;;;;5069823;28;20679;-86
2021/07/05 01:18:06;;;;;;;1.43;1.20;;;16.50;99.90;;;;;;5065109;28;21068;-86
2021/07/05 01:20:39;;;;;;;3.67;1.20;;;16.50;99.90;;;;;;5070517;28;20704;-86
2021/07/05 01:23:10;;;;;;;1.50;1.40;;;16.50;99.90;;;;;;5070649;28;20625;-87
2021/07/05 01:25:40;;;;;;;2.30;1.07;;;16.50;99.90;;;;;;5069982;28;21184;-86
2021/07/05 01:28:09;;;;;;;4.30;1.50;;;16.60;99.90;;;;;;5070685;28;20618;-87
2021/07/05 01:30:37;;;;;;;2.07;1.20;;;16.50;99.90;;;;;;5070662;28;20628;-86
2021/07/05 01:33:08;;;;;;;2.57;1.13;;;16.50;99.90;;;;;;5070736;28;20655;-87
2021/07/05 01:35:41;;;;;;;1.67;1.57;;;16.50;99.90;;;;;;5070110;28;20625;-86
2021/07/05 01:38:15;;;;;;;1.67;1.57;;;16.40;99.90;;;;;;5069924;28;20652;-87
2021/07/05 01:40:44;;;;;;;3.70;1.20;;;16.40;99.90;;;;;;5070273;28;20752;-86
2021/07/05 01:43:12;;;;;;;1.93;1.20;;;16.40;99.90;;;;;;5070650;28;20644;-86
2021/07/05 01:45:42;;;;;;;1.20;1.20;;;16.50;99.90;;;;;;5070143;28;20731;-86
2021/07/05 01:48:10;;;;;;;2.50;1.30;;;16.60;99.90;;;;;;5070410;28;20617;-86
2021/07/05 01:50:43;;;;;;;2.30;0.90;;;16.50;99.90;;;;;;5070121;28;20732;-86
2021/07/05 01:53:10;;;;;;;1.30;1.20;;;16.50;99.90;;;;;;5070126;28;20633;-85
2021/07/05 01:55:40;;;;;;;3.60;1.00;;;16.50;99.90;;;;;;5070200;28;20605;-86
2021/07/05 01:58:09;;;;;;;1.40;1.30;;;16.50;99.90;;;;;;5070722;28;20630;-86
2021/07/05 02:00:40;;;;;;;4.20;1.87;;;16.60;99.90;;;;;;5070197;28;20632;-86
2021/07/05 02:03:09;;;;;;;1.73;1.63;;;16.60;99.90;;;;;;5069658;28;20613;-86
2021/07/05 02:05:37;;;;;;;2.37;1.80;;;16.50;99.90;;;;;;5054176;28;20634;-87
2021/07/05 02:08:07;;;;;;;2.23;2.03;;;16.50;99.90;;;;;;5051236;28;21125;-87
2021/07/05 02:10:38;;;;;;;1.80;1.70;;;16.60;99.90;;;;;;5058064;28;20626;-86
2021/07/05 02:13:15;;;;;;;1.50;1.40;;;16.50;99.90;;;;;;5061140;28;20641;-87
2021/07/05 02:15:43;;;;;;;1.43;1.33;;;16.60;99.90;;;;;;5068125;28;20674;-87
2021/07/05 02:18:12;;;;;;;2.20;1.80;;;16.60;99.90;;;;;;5070572;28;21185;-86
2021/07/05 02:20:41;;;;;;;2.40;1.40;;;16.60;99.90;;;;;;5050040;28;20696;-86
2021/07/05 02:23:14;;;;;;;3.97;1.57;;;16.60;99.90;;;;;;5050321;28;20614;-87
2021/07/05 02:25:42;;;;;;;1.40;1.30;;;16.50;99.90;;;;;;5046136;28;21194;-86
2021/07/05 02:28:14;;;;;;;3.03;1.50;;;16.40;99.90;;;;;;5060472;28;20655;-87
2021/07/05 02:30:54;;;;;;;1.90;1.80;;;16.40;99.90;;;;;;5073561;28;20629;-86
2021/07/05 02:33:25;;;;;;;1.50;1.40;;;16.40;99.90;;;;;;5073833;28;20732;-87
2021/07/05 02:35:54;;;;;;;1.70;1.30;;;16.40;99.90;;;;;;5073273;28;20604;-87
2021/07/05 02:38:22;;;;;;;1.37;1.27;;;16.40;99.90;;;;;;5073022;28;20615;-86
2021/07/05 02:40:51;;;;;;;1.63;1.53;;;16.50;99.90;;;;;;5072927;28;20644;-86
2021/07/05 02:43:21;;;;;;;1.80;1.70;;;16.60;99.90;;;;;;5067686;28;20655;-86
2021/07/05 02:45:51;;;;;;;3.30;1.93;;;16.50;99.90;;;;;;5056497;28;20615;-86
2021/07/05 02:48:21;;;;;;;2.73;1.43;;;16.50;99.90;;;;;;5053441;28;20606;-86
2021/07/05 02:50:51;;;;;;;2.03;1.80;;;16.60;99.90;;;;;;5053360;28;20625;-87
2021/07/05 02:53:18;;;;;;;2.27;2.07;;;16.50;99.90;;;;;;5053286;28;20637;-86
2021/07/05 02:55:46;;;;;;;2.60;2.00;;;16.50;99.90;;;;;;5052876;28;20618;-86
2021/07/05 02:58:13;;;;;;;2.03;1.43;;;16.40;99.90;;;;;;5053330;28;20602;-86
2021/07/05 03:00:43;;;;;;;2.20;2.00;;;16.40;99.90;;;;;;5072219;28;21466;-87
2021/07/05 03:03:11;;;;;;;2.07;1.90;;;16.50;99.90;;;;;;5067706;28;20996;-87
2021/07/05 03:05:38;;;;;;;4.30;1.77;;;16.50;99.90;;;;;;5072776;28;20678;-86
2021/07/05 03:08:05;;;;;;;3.10;1.97;;;16.60;99.90;;;;;;5055710;28;20602;-86
2021/07/05 03:10:35;;;;;;;2.20;1.90;;;16.60;99.90;;;;;;5052901;28;20930;-86
2021/07/05 03:13:04;;;;;;;1.60;1.40;;;16.60;99.90;;;;;;5052865;28;20618;-86
2021/07/05 03:15:31;;;;;;;1.83;1.73;;;16.60;99.90;;;;;;5064439;28;21161;-86
2021/07/05 03:17:59;;;;;;;2.00;1.73;;;16.50;99.90;;;;;;5067878;28;20637;-86
2021/07/05 03:20:29;;;;;;;1.53;1.43;;;16.50;99.90;;;;;;5072400;28;20633;-86
2021/07/05 03:22:58;;;;;;;1.50;1.40;;;16.40;99.90;;;;;;5072679;28;20606;-86
2021/07/05 03:25:27;;;;;;;1.93;1.47;;;16.40;99.90;;;;;;5072187;28;20613;-86
2021/07/05 03:27:54;;;;;;;2.90;1.60;;;16.50;99.90;;;;;;5072227;28;20626;-86
2021/07/05 03:30:23;;;;;;;1.23;1.13;;;16.40;99.90;;;;;;5072579;28;20605;-86
2021/07/05 03:32:50;;;;;;;3.27;1.40;;;16.30;99.90;;;;;;5072111;28;21149;-86
2021/07/05 03:35:19;;;;;;;1.40;1.30;;;16.30;99.90;;;;;;5072472;28;20618;-86
2021/07/05 03:37:47;;;;;;;2.53;1.77;;;16.30;99.90;;;;;;5068587;28;21052;-86
2021/07/05 03:40:19;;;;;;;2.10;1.50;;;16.30;99.90;;;;;;5069261;28;20998;-86
2021/07/05 03:42:46;;;;;;;2.57;1.50;;;16.30;99.90;;;;;;5072259;28;20617;-86
2021/07/05 03:45:16;;;;;;;2.70;1.50;;;16.30;99.90;;;;;;5071937;28;20685;-85
2021/07/05 03:47:43;;;;;;;4.57;1.87;;;16.40;99.90;;;;;;5072241;28;20605;-86
2021/07/05 03:50:11;;;;;;;1.73;1.63;;;16.30;99.90;;;;;;5072215;28;20605;-86
2021/07/05 03:52:40;;;;;;;1.90;1.50;;;16.30;99.90;;;;;;5072122;28;20610;-85
2021/07/05 03:55:10;;;;;;;1.90;1.73;;;16.30;99.90;;;;;;5066250;28;20652;-86
2021/07/05 03:57:37;;;;;;;1.90;1.80;;;16.30;99.90;;;;;;5071885;28;20617;-86
2021/07/05 04:00:07;;;;;;;1.93;1.57;;;16.30;99.90;;;;;;5071775;28;20650;-86
2021/07/05 04:02:35;;;;;;;1.40;1.23;;;16.30;99.90;;;;;;5072205;28;20671;-86
2021/07/05 04:05:01;;;;;;;3.50;1.90;;;16.40;99.90;;;;;;5071186;28;20693;-86
2021/07/05 04:07:28;;;;;;;2.83;1.57;;;16.20;99.90;;;;;;5071486;28;21244;-86
2021/07/05 04:09:57;;;;;;;2.30;1.73;;;16.20;99.90;;;;;;5071980;28;20621;-86
2021/07/05 04:12:25;;;;;;;2.20;1.73;;;16.30;99.90;;;;;;5072019;28;20667;-86
2021/07/05 04:14:52;;;;;;;1.90;1.80;;;16.40;99.90;;;;;;5071459;28;20624;-86
2021/07/05 04:17:19;;;;;;;4.10;1.73;;;16.30;99.90;;;;;;5071673;28;21123;-86
2021/07/05 04:19:47;;;;;;;2.70;2.50;;;16.30;99.90;;;;;;5066289;28;20987;-86
2021/07/05 04:22:15;;;;;;;1.30;1.20;;;16.30;99.90;;;;;;5071731;28;21178;-86
2021/07/05 04:24:42;;;;;;;1.63;1.53;;;16.20;99.90;;;;;;5071263;28;20609;-85
2021/07/05 04:27:11;;;;;;;1.70;1.60;;;16.20;99.90;;;;;;5070976;28;20609;-85
2021/07/05 04:29:39;;;;;;;2.20;1.60;;;16.20;99.90;;;;;;5067709;28;20615;-85
2021/07/05 04:32:09;;;;;;;2.23;2.10;;;16.20;99.90;;;;;;5065428;28;20618;-86
2021/07/05 04:34:37;;;;;;;2.20;1.83;;;16.20;99.90;;;;;;5065856;28;20981;-86
2021/07/05 04:37:04;;;;;;;2.53;2.20;;;16.30;99.90;;;;;;5071706;28;20662;-85
2021/07/05 04:39:31;;;;;;;4.37;2.10;;;16.30;99.90;;;;;;5071002;28;20634;-85
2021/07/05 04:41:58;;;;;;;2.03;1.60;;;16.30;99.90;;;;;;5071392;28;20631;-85
2021/07/05 04:44:27;;;;;;;1.50;1.40;;;16.30;99.90;;;;;;5070964;28;20603;-86
2021/07/05 04:46:54;;;;;;;2.80;2.20;;;16.20;99.90;;;;;;5071200;28;20642;-85
2021/07/05 04:49:22;;;;;;;1.90;1.80;;;16.20;99.90;;;;;;5071454;28;20712;-85
2021/07/05 04:51:49;;;;;;;2.80;1.43;;;16.30;99.90;;;;;;5070383;28;20653;-85
2021/07/05 04:54:16;;;;;;;5.47;2.33;;;16.50;99.90;;;;;;5070630;28;21012;-85
2021/07/05 04:56:44;;;;;;;1.60;1.50;;;16.40;99.90;;;;;;5070886;28;20685;-85
2021/07/05 04:59:14;;;;;;;3.23;1.90;;;16.50;99.90;;;;;;5070744;28;20674;-85
2021/07/05 05:01:46;;;;;;;1.70;1.60;;;16.40;99.90;;;;;;5071125;28;20618;-86
2021/07/05 05:04:13;;;;;;;2.60;2.07;;;16.40;99.90;;;;;;5069567;28;20678;-85
2021/07/05 05:06:40;;;;;;;2.20;1.60;;;16.50;99.90;;;;;;5065977;28;20630;-85
2021/07/05 05:09:07;;;;;;;1.77;1.67;;;16.50;99.90;;;;;;5070797;28;21128;-86
2021/07/05 05:11:34;;;;;;;1.93;1.57;;;16.60;99.90;;;;;;5071085;28;20625;-86
2021/07/05 05:14:01;;;;;;;4.03;1.60;;;16.70;99.90;;;;;;5071106;28;20606;-85
2021/07/05 05:16:29;;;;;;;1.40;1.30;;;16.70;99.90;;;;;;5070059;28;20651;-85
2021/07/05 05:18:57;;;;;;;5.20;1.97;;;16.70;99.90;;;;;;5070921;28;20618;-86
2021/07/05 05:21:24;;;;;;;2.23;2.03;;;16.70;99.90;;;;;;5069783;28;20660;-85
2021/07/05 05:23:51;;;;;;;2.47;1.93;;;16.80;99.90;;;;;;5070651;28;20642;-85
2021/07/05 05:26:18;;;;;;;4.33;1.77;;;16.80;99.90;;;;;;5065305;28;20607;-87
2021/07/05 05:28:47;;;;;;;3.03;2.40;;;16.80;99.90;;;;;;5057466;28;20625;-86
2021/07/05 05:31:14;;;;;;;2.07;1.80;;;16.80;99.90;;;;;;5069728;28;20692;-87
2021/07/05 05:33:42;;;;;;;1.80;1.43;;;16.80;99.90;;;;;;5071380;28;20603;-87
2021/07/05 05:36:11;;;;;;;1.87;1.77;;;16.90;99.90;;;;;;5065328;28;20718;-87
2021/07/05 05:38:40;;;;;;;2.10;1.70;;;17.00;99.90;;;;;;5066800;28;20629;-88
2021/07/05 05:41:08;;;;;;;1.70;1.60;;;17.20;99.90;;;;;;5071502;28;21186;-87
2021/07/05 05:43:35;;;;;;;8.20;2.30;;;17.30;99.90;;;;;;5070481;28;20629;-87
2021/07/05 05:46:02;;;;;;;2.27;1.60;;;17.30;99.90;;;;;;5069300;28;20618;-87
2021/07/05 05:48:30;;;;;;;1.70;1.60;;;17.30;99.90;;;;;;5069845;28;20663;-87
2021/07/05 05:50:58;;;;;;;1.70;1.60;;;17.20;99.90;;;;;;5070998;28;20602;-87
2021/07/05 05:53:26;;;;;;;1.70;1.50;;;17.20;99.90;;;;;;5070882;28;20622;-87
2021/07/05 05:55:54;;;;;;;2.70;1.53;;;17.20;99.90;;;;;;5070029;28;21186;-87
2021/07/05 05:58:21;;;;;;;2.63;1.87;;;17.10;99.90;;;;;;5070850;28;20950;-87
2021/07/05 06:00:48;;;;;;;1.70;1.60;;;17.10;99.90;;;;;;5070541;28;20649;-87
2021/07/05 06:03:15;;;;;;;2.00;1.80;;;17.10;99.90;;;;;;5071783;28;20661;-86
2021/07/05 06:05:42;;;;;;;2.60;1.80;;;17.00;99.90;;;;;;5075217;28;21175;-88
2021/07/05 06:08:09;;;;;;;2.50;2.07;;;17.00;99.90;;;;;;5075090;28;20621;-88
2021/07/05 06:10:37;;;;;;;1.93;1.80;;;17.10;99.90;;;;;;5075314;28;20621;-87
2021/07/05 06:13:04;;;;;;;2.20;2.10;;;17.10;99.90;;;;;;5075327;28;20676;-88
2021/07/05 06:15:31;;;;;;;1.57;1.47;;;17.10;99.90;;;;;;5075429;28;20622;-88
2021/07/05 06:17:58;;;;;;;1.73;1.63;;;17.10;99.90;;;;;;5075566;28;20611;-88
2021/07/05 06:20:25;;;;;;;3.20;1.57;;;17.10;99.90;;;;;;5076430;28;21273;-87
2021/07/05 06:22:54;;;;;;;2.10;1.90;;;17.10;99.90;;;;;;5076064;28;20667;-87
2021/07/05 06:25:22;;;;;;;2.47;2.20;;;17.00;99.90;;;;;;5076015;28;21202;-88
2021/07/05 06:27:50;;;;;;;1.80;1.70;;;17.10;99.90;;;;;;5075690;28;20621;-87
2021/07/05 06:30:18;;;;;;;2.40;2.20;;;17.10;99.90;;;;;;5076185;28;20698;-89
2021/07/05 06:32:46;;;;;;;2.03;1.83;;;17.20;99.90;;;;;;5073355;28;20643;-87
2021/07/05 06:35:14;;;;;;;2.07;1.87;;;17.20;99.90;;;;;;5069809;28;20987;-88
2021/07/05 06:37:41;;;;;;;2.30;2.10;;;17.20;99.90;;;;;;5056710;28;21045;-88
2021/07/05 06:40:09;;;;;;;2.33;1.60;;;17.10;99.90;;;;;;5055927;28;20655;-88
2021/07/05 06:42:37;;;;;;;3.30;2.23;;;17.20;99.90;;;;;;5055217;28;20615;-88
2021/07/05 06:45:07;;;;;;;3.73;1.90;;;17.10;99.90;;;;;;5055605;28;20612;-89
2021/07/05 06:47:34;;;;;;;2.27;2.07;;;17.10;99.90;;;;;;5056441;28;20858;-87
2021/07/05 06:50:01;;;;;;;2.03;1.27;;;17.00;99.90;;;;;;5056450;28;20975;-87
2021/07/05 06:52:32;;;;;;;3.10;1.80;;;17.00;99.90;;;;;;5055878;28;20603;-88
2021/07/05 06:54:59;;;;;;;1.60;1.50;;;17.10;99.90;;;;;;5056457;28;21153;-88
2021/07/05 06:57:29;;;;;;;3.00;1.80;;;17.20;99.90;;;;;;5055618;28;20615;-89
2021/07/05 06:59:57;;;;;;;2.17;1.97;;;17.20;99.90;;;;;;5055423;28;20657;-88
2021/07/05 07:02:26;;;;;;;4.67;1.70;;;17.20;99.90;;;;;;5055328;28;20610;-88
2021/07/05 07:04:54;;;;;;;4.13;1.80;;;17.20;99.90;;;;;;5056283;28;20620;-88
2021/07/05 07:07:24;;;;;;;3.70;2.13;;;17.20;99.90;;;;;;5066803;28;20603;-88
2021/07/05 07:09:51;;;;;;;2.17;1.87;;;17.30;99.90;;;;;;5067306;28;20639;-88
2021/07/05 07:12:18;;;;;;;1.80;1.70;;;17.30;99.90;;;;;;5066224;28;20628;-89
2021/07/05 07:14:45;;;;;;;1.67;1.57;;;17.30;99.90;;;;;;5068905;28;20625;-87
2021/07/05 07:17:19;;;;;;;2.17;1.97;;;17.40;99.90;;;;;;5066249;28;20640;-88
2021/07/05 07:19:48;;;;;;;2.13;1.77;;;17.30;99.90;;;;;;5064324;28;20627;-88
2021/07/05 07:22:15;;;;;;;2.20;1.90;;;17.30;99.90;;;;;;5063695;28;20620;-88
2021/07/05 07:24:42;;;;;;;1.67;1.57;;;17.30;99.90;;;;;;5064218;28;20634;-88
2021/07/05 07:27:09;;;;;;;1.80;1.70;;;17.30;99.90;;;;;;5054859;28;20627;-88
2021/07/05 07:29:36;;;;;;;3.90;1.87;;;17.40;99.90;;;;;;5054708;28;20623;-87
2021/07/05 07:32:03;;;;;;;3.07;1.63;;;17.50;99.90;;;;;;5056454;28;21250;-87
2021/07/05 07:34:30;;;;;;;4.97;2.00;;;17.60;99.90;;;;;;5054184;28;20612;-88
2021/07/05 07:37:02;;;;;;;2.03;1.93;;;17.70;99.90;;;;;;5056400;28;20609;-88
2021/07/05 07:39:36;;;;;;;2.70;1.80;;;17.70;99.90;;;;;;5072428;28;20731;-86
2021/07/05 07:42:03;;;;;;;2.13;2.03;;;17.80;99.90;;;;;;5058608;28;20703;-87
2021/07/05 07:44:30;;;;;;;1.90;1.80;;;17.80;99.90;;;;;;5055240;28;20614;-87
2021/07/05 07:46:57;;;;;;;2.60;2.40;;;17.70;99.90;;;;;;5054495;28;20621;-87
2021/07/05 07:49:30;;;;;;;2.20;1.97;;;17.90;99.90;;;;;;5054313;28;20634;-87
2021/07/05 07:51:58;;;;;;;1.97;1.80;;;17.90;99.90;;;;;;5055257;28;20616;-88
2021/07/05 07:54:26;;;;;;;2.23;2.13;;;17.90;99.90;;;;;;5055308;28;20621;-87
2021/07/05 07:56:53;;;;;;;1.97;1.77;;;18.00;99.90;;;;;;5054915;28;20989;-88
2021/07/05 07:59:20;;;;;;;1.60;1.50;;;18.00;99.90;;;;;;5054455;28;20691;-87
2021/07/05 08:01:47;;;;;;;5.83;1.60;;;18.00;99.90;;;;;;5053613;28;20663;-87
2021/07/05 08:04:15;;;;;;;2.00;1.90;;;18.10;99.90;;;;;;5054381;28;20625;-86
2021/07/05 08:06:42;;;;;;;1.80;1.70;;;18.10;99.90;;;;;;5059578;28;20674;-86
2021/07/05 08:09:11;;;;;;;7.03;2.23;;;18.10;99.90;;;;;;5064145;28;20673;-87
2021/07/05 08:11:40;;;;;;;2.00;1.90;;;18.00;99.90;;;;;;5073909;28;21165;-88
2021/07/05 08:14:08;;;;;;;1.97;1.80;;;18.00;99.90;;;;;;5075605;28;20631;-87
2021/07/05 08:16:35;;;;;;;3.00;1.50;;;18.00;99.90;;;;;;5054342;28;20621;-88
2021/07/05 08:19:03;;;;;;;2.77;2.57;;;17.70;99.90;;;;;;5063765;28;20627;-87
2021/07/05 08:21:30;;;;;;;1.70;1.60;;;17.90;99.90;;;;;;5072364;28;20659;-87
2021/07/05 08:23:57;;;;;;;2.57;1.80;;;17.90;99.90;;;;;;5074718;28;20617;-87
2021/07/05 08:26:26;;;;;;;3.63;2.33;;;17.70;99.90;;;;;;5074494;28;20663;-87
2021/07/05 08:28:53;;;;;;;2.40;1.83;;;17.70;99.90;;;;;;5071079;28;20626;-86
2021/07/05 08:31:20;;;;;;;2.23;1.80;;;17.80;99.90;;;;;;5060425;28;20630;-87
2021/07/05 08:33:50;;;;;;;1.57;1.47;;;17.60;99.90;;;;;;5072313;28;20647;-86
2021/07/05 08:36:19;;;;;;;3.20;1.90;;;17.70;99.90;;;;;;5062526;28;20629;-86
2021/07/05 08:38:47;;;;;;;2.60;1.70;;;17.70;99.90;;;;;;5060037;28;20654;-86
2021/07/05 08:41:14;;;;;;;3.53;1.63;;;17.70;99.90;;;;;;5063408;28;20758;-87
2021/07/05 08:43:45;;;;;;;4.23;1.90;;;17.70;99.90;;;;;;5057673;28;20734;-87
2021/07/05 08:46:14;;;;;;;3.47;2.03;;;17.80;99.90;;;;;;5067024;28;20626;-88
2021/07/05 08:48:43;;;;;;;2.20;1.57;;;17.80;99.90;;;;;;5064788;28;20621;-88
2021/07/05 08:51:12;;;;;;;3.60;2.00;;;17.80;99.90;;;;;;5073487;28;20621;-86
2021/07/05 08:53:40;;;;;;;1.90;1.80;;;17.70;99.90;;;;;;5066351;28;21204;-87
2021/07/05 08:56:08;;;;;;;2.00;1.80;;;17.80;99.90;;;;;;5070600;28;20931;-88
2021/07/05 08:58:41;;;;;;;1.70;1.60;;;17.90;99.90;;;;;;5075172;28;20615;-87
2021/07/05 09:01:13;;;;;;;1.97;1.87;;;18.00;99.90;;;;;;5074589;28;20692;-87
2021/07/05 09:03:44;;;;;;;2.80;1.93;;;18.00;99.90;;;;;;5074661;28;20639;-88
2021/07/05 09:06:14;;;;;;;1.87;1.77;;;17.90;99.90;;;;;;5073746;28;21211;-88
2021/07/05 09:08:46;;;;;;;3.80;1.87;;;18.10;99.90;;;;;;5074196;28;20677;-87
2021/07/05 09:11:18;;;;;;;2.13;1.93;;;18.00;99.90;;;;;;5073994;28;20617;-87
2021/07/05 09:13:48;;;;;;;2.10;2.00;;;18.10;99.90;;;;;;5054816;28;20636;-88
2021/07/05 09:16:29;;;;;;;2.13;1.93;;;18.40;99.90;;;;;;5072057;28;20640;-86
2021/07/05 09:18:58;;;;;;;2.00;1.90;;;18.50;99.90;;;;;;5073441;28;20622;-86
2021/07/05 09:21:30;;;;;;;1.70;1.60;;;18.60;99.90;;;;;;5074747;28;20765;-87
2021/07/05 09:24:01;;;;;;;1.67;1.57;;;18.50;99.90;;;;;;5074670;28;20667;-86
2021/07/05 09:26:32;;;;;;;1.67;1.57;;;18.50;99.90;;;;;;5074305;28;20628;-86
2021/07/05 09:29:02;;;;;;;1.43;1.33;;;18.40;99.90;;;;;;5074237;28;21231;-87
2021/07/05 09:31:37;;;;;;;1.47;1.20;;;18.50;99.90;;;;;;5073947;28;20638;-86
2021/07/05 09:34:14;;;;;;;1.07;1.07;;;18.60;99.90;;;;;;5074387;28;20612;-87
2021/07/05 09:36:42;;;;;;;1.20;1.10;;;18.60;99.90;;;;;;5074286;28;20628;-87
2021/07/05 09:39:15;;;;;;;3.43;1.07;;;18.60;99.90;;;;;;5078700;28;20616;-87
2021/07/05 09:41:42;;;;;;;1.57;1.43;;;18.40;99.90;;;;;;5077531;28;20651;-85
2021/07/05 09:44:16;;;;;;;1.90;1.10;;;18.40;99.90;;;;;;5068661;28;21013;-86
2021/07/05 09:46:47;;;;;;;1.13;1.00;;;18.20;99.90;;;;;;5077939;28;20628;-87
2021/07/05 09:49:21;;;;;;;1.67;1.13;;;18.20;99.90;;;;;;5076868;28;21236;-86
2021/07/05 09:52:05;;;;;;;0.97;0.87;;;18.30;99.90;;;;;;5076059;28;20614;-86
2021/07/05 09:54:34;;;;;;;1.33;1.23;;;18.40;99.90;;;;;;5072903;28;20620;-86
2021/07/05 09:57:02;;;;;;;2.23;1.23;;;18.30;99.90;;;;;;5078781;28;20616;-87
2021/07/05 09:59:30;;;;;;;1.20;1.10;;;18.30;99.90;;;;;;5078107;28;20693;-86
2021/07/05 10:01:59;;;;;;;1.20;1.00;;;18.40;99.90;;;;;;5077884;28;20656;-86
2021/07/05 10:04:28;;;;;;;2.93;1.10;;;18.30;99.90;;;;;;5078354;28;20629;-87
2021/07/05 10:06:56;;;;;;;1.33;1.23;;;18.30;99.90;;;;;;5078576;28;20671;-86
2021/07/05 10:09:34;;;;;;;1.13;1.13;;;18.40;99.90;;;;;;5077409;28;20621;-86
2021/07/05 10:12:26;;;;;;;1.27;0.90;;;18.40;99.90;;;;;;5077364;28;20753;-86
2021/07/05 10:14:55;;;;;;;0.90;0.90;;;18.40;99.90;;;;;;5077341;28;20617;-86
2021/07/05 10:17:25;;;;;;;1.10;1.10;;;18.40;99.90;;;;;;5077831;28;20615;-87
2021/07/05 10:19:53;;;;;;;1.00;1.00;;;18.30;99.90;;;;;;5077572;28;20624;-86
2021/07/05 10:22:20;;;;;;;0.90;0.90;;;18.10;99.90;;;;;;5077589;28;20650;-87
2021/07/05 10:24:48;;;;;;;1.10;0.83;;;18.20;99.90;;;;;;5073693;28;20621;-86
2021/07/05 10:27:16;;;;;;;1.47;0.90;;;18.30;99.90;;;;;;5077895;28;20633;-85
2021/07/05 10:29:45;;;;;;;0.87;0.87;;;18.30;99.90;;;;;;5076907;28;20644;-86
2021/07/05 10:32:12;;;;;;;2.07;1.40;;;18.30;99.90;;;;;;5077226;28;20636;-86
2021/07/05 10:34:42;;;;;;;0.90;0.90;;;18.30;99.90;;;;;;5077250;28;20604;-86
2021/07/05 10:37:16;;;;;;;1.17;1.00;;;18.40;99.90;;;;;;5077696;28;20632;-86
2021/07/05 10:39:50;;;;;;;0.80;0.80;;;18.40;99.90;;;;;;5077424;28;21525;-86
2021/07/05 10:42:35;;;;;;;1.10;1.00;;;18.30;99.90;;;;;;5075158;28;20670;-87
2021/07/05 10:45:06;;;;;;;1.00;1.00;;;18.30;99.90;;;;;;5076973;28;21409;-86
2021/07/05 10:47:45;;;;;;;1.37;1.27;;;18.40;99.90;;;;;;5076925;28;20673;-86
2021/07/05 10:50:45;;;;;;;1.67;0.90;;;18.50;99.90;;;;;;5076607;28;20631;-86
2021/07/05 10:53:16;;;;;;;1.63;0.90;;;18.50;99.90;;;;;;5077070;28;20613;-86
2021/07/05 10:55:45;;;;;;;1.13;1.00;;;18.70;99.90;;;;;;5057206;28;20630;-86
2021/07/05 10:58:23;;;;;;;1.17;1.07;;;18.70;99.90;;;;;;5056899;28;20613;-87
2021/07/05 11:00:52;;;;;;;2.97;2.10;;;18.70;99.90;;;;;;5056750;28;20610;-86
2021/07/05 11:03:46;;;;;;;1.10;1.10;;;18.70;99.90;;;;;;5072675;28;20720;-86
2021/07/05 11:06:44;;;;;;;1.10;1.00;;;18.80;99.90;;;;;;5069952;28;20660;-86
2021/07/05 11:09:18;;;;;;;2.60;1.37;;;18.90;99.90;;;;;;5056422;28;20625;-87
2021/07/05 11:11:52;;;;;;;1.90;1.37;;;19.00;99.90;;;;;;5059235;28;20650;-86
2021/07/05 11:14:25;;;;;;;1.17;1.07;;;19.20;99.90;;;;;;5075705;28;20631;-87
2021/07/05 11:17:08;;;;;;;1.77;1.10;;;19.20;99.90;;;;;;5068827;28;21151;-86
2021/07/05 11:19:47;;;;;;;3.40;1.07;;;19.40;99.90;;;;;;5070072;28;20657;-87
2021/07/05 11:22:23;;;;;;;2.07;1.37;;;19.30;99.90;;;;;;5076532;28;20660;-87
2021/07/05 11:24:57;;;;;;;1.00;1.00;;;19.30;99.90;;;;;;5075928;28;20694;-86
2021/07/05 11:27:55;;;;;;;1.47;1.37;;;19.50;99.90;;;;;;5075986;28;20624;-87
2021/07/05 11:30:34;;;;;;;1.30;1.10;;;19.70;99.90;;;;;;5076740;28;21568;-87
2021/07/05 11:33:17;;;;;;;1.00;1.00;;;19.90;99.90;;;;;;5076196;28;20617;-86
2021/07/05 11:35:50;;;;;;;1.63;1.53;;;19.80;99.90;;;;;;5073633;28;20621;-86
2021/07/05 11:38:36;;;;;;;2.00;1.30;;;19.80;99.90;;;;;;5075993;28;20625;-86
2021/07/05 11:41:07;;;;;;;1.50;1.40;;;19.80;99.90;;;;;;5076397;28;20653;-86
2021/07/05 11:43:47;;;;;;;2.10;1.90;;;19.80;99.90;;;;;;5077296;28;20640;-85
2021/07/05 11:46:39;;;;;;;1.93;1.83;;;19.50;99.90;;;;;;5075932;28;20617;-86
2021/07/05 11:49:07;;;;;;;1.20;1.20;;;19.60;99.90;;;;;;5076199;28;20620;-86
2021/07/05 11:51:36;;;;;;;1.43;1.30;;;19.70;99.90;;;;;;5075836;28;20617;-86
2021/07/05 11:54:06;;;;;;;1.13;1.10;;;19.90;99.90;;;;;;5056745;28;20681;-87
2021/07/05 11:56:37;;;;;;;1.40;1.30;;;19.90;99.90;;;;;;5055975;28;20620;-86
2021/07/05 11:59:07;;;;;;;1.53;1.43;;;20.00;99.90;;;;;;5056082;28;20625;-87
2021/07/05 12:01:36;;;;;;;1.43;1.33;;;20.10;99.90;;;;;;5055197;28;20638;-86
2021/07/05 12:04:04;;;;;;;2.83;1.63;;;20.10;99.90;;;;;;5075560;28;21217;-86
2021/07/05 12:06:32;;;;;;;1.70;1.60;;;20.10;99.90;;;;;;5075596;28;20605;-85
2021/07/05 12:09:02;;;;;;;3.10;1.83;;;20.00;99.90;;;;;;5075798;28;20628;-86
2021/07/05 12:11:40;;;;;;;1.50;1.40;;;20.00;99.90;;;;;;5075505;28;20638;-86
2021/07/05 12:14:16;;;;;;;1.67;1.57;;;19.90;99.90;;;;;;5074882;28;21186;-86
2021/07/05 12:16:45;;;;;;;1.27;1.17;;;19.70;99.90;;;;;;5075650;28;20646;-86
2021/07/05 12:19:14;;;;;;;1.70;1.60;;;19.60;99.90;;;;;;5075410;28;20617;-86
2021/07/05 12:21:46;;;;;;;1.40;1.30;;;19.40;99.90;;;;;;5074815;28;20702;-86
2021/07/05 12:24:23;;;;;;;1.67;1.57;;;19.50;99.90;;;;;;5072919;28;20613;-86
2021/07/05 12:26:54;;;;;;;2.03;1.83;;;19.50;99.90;;;;;;5074544;28;21270;-87
2021/07/05 12:29:24;;;;;;;1.70;1.60;;;19.70;99.90;;;;;;5074715;28;20609;-87
2021/07/05 12:32:08;;;;;;;2.23;1.70;;;19.70;99.90;;;;;;5074219;28;20996;-87
2021/07/05 12:34:44;;;;;;;4.73;2.00;;;19.90;99.90;;;;;;5068861;28;20628;-87
2021/07/05 12:37:21;;;;;;;1.70;1.60;;;19.90;99.90;;;;;;5058635;28;20639;-88
2021/07/05 12:39:52;;;;;;;1.93;1.70;;;20.00;99.90;;;;;;5075219;28;20693;-88
2021/07/05 12:42:44;;;;;;;1.93;1.70;;;20.40;99.90;;;;;;5074432;28;20658;-88
2021/07/05 12:45:19;;;;;;;1.67;1.57;;;20.90;99.90;;;;;;5054394;28;20703;-87
2021/07/05 12:47:48;;;;;;;1.13;1.07;;;21.00;99.90;;;;;;5054416;28;20619;-87
2021/07/05 12:50:18;;;;;;;1.63;1.53;;;21.30;99.90;;;;;;5055411;28;20666;-86
2021/07/05 12:53:16;;;;;;;2.00;1.90;;;21.60;99.90;;;;;;5063127;28;20616;-87
2021/07/05 12:55:58;;;;;;;3.47;1.70;;;21.50;99.90;;;;;;5074763;28;20617;-87
2021/07/05 12:58:41;;;;;;;1.50;1.40;;;21.80;99.90;;;;;;5075046;28;20624;-87
2021/07/05 13:01:12;;;;;;;1.70;1.60;;;22.20;99.90;;;;;;5074280;28;20623;-86
2021/07/05 13:03:40;;;;;;;1.10;1.10;;;22.50;99.90;;;;;;5073426;28;20664;-86